Startpagina
METAR-TAF:

METAR-TAF

Vliegvelden :

Kenneth Kaunda International Airport

Lusaka, Zambia

breedte: 15-19-51S, lengte: 028-27-09E, hoogte: 1152 m

Actueel weer

Dit bericht is 3 uur en het 11 minuten geleden gemaakt, om 16:00 UTC
Wind 5 kt uit het zuidoosten
Temperatuur 21°C
Vochtigheid 78%
Druk 1016 hPa
Zicht 10 km of meer
Weinig wolken op 6000 ft, Cumulonimbus.
Gebroken wolken op 10000 ft

METAR: FLKK 191600Z 13005KT 9999 FEW060CB BKN100 21/17 Q1016

Tijdstip: 21:11 (19:11 UTC)


TAF: ontbreekt

Waarnemingen en weersverwachtingen van meer dan 4000 vliegvelden (METAR en TAF).

De beschikbare stations zijn de gele en rode punten op de kaart.

Ga met uw muis naar het station om de naam te zien.

Klik dan om waarnemingen en weersverwachtingen te zien.

kaart wijzigen: klik op de groene knoppen met een zwart kruis om in te zoomen, op de groene knop met een streepje om uit te zoomen of op de groene pijlen voor aangrenzende kaarten.


METAR-TAF: